Time;durP1;ratioP1;P1;durP2;ratioP2;P2;SDS_P1;SDS_P2;PMS_P1;PMS_P2;Temp;Humidity;BMP_temperature;BMP_pressure;BME280_temperature;BME280_humidity;BME280_pressure;Samples;Min_cycle;Max_cycle;Signal;HPM_P1;HPM_P2
2021/08/07 00:00:58;;;;;;;5.25;2.80;;;;;;;16.93;100.00;100358.78;5287944;28;20074;-67
2021/08/07 00:03:29;;;;;;;6.57;2.78;;;;;;;16.91;100.00;100346.72;5286292;28;20121;-67
2021/08/07 00:06:00;;;;;;;5.80;2.88;;;;;;;16.88;100.00;100355.03;5285737;28;20020;-67
2021/08/07 00:08:31;;;;;;;7.90;3.22;;;;;;;16.87;100.00;100348.09;5285557;28;20035;-67
2021/08/07 00:11:03;;;;;;;5.47;2.90;;;;;;;16.86;100.00;100343.78;5286241;28;20157;-67
2021/08/07 00:13:34;;;;;;;5.53;3.03;;;;;;;16.85;100.00;100342.16;5287922;28;20046;-67
2021/08/07 00:16:06;;;;;;;7.25;3.20;;;;;;;16.85;100.00;100344.81;5287018;28;20107;-67
2021/08/07 00:18:37;;;;;;;5.20;3.10;;;;;;;16.84;100.00;100345.81;5285734;28;20123;-67
2021/08/07 00:21:08;;;;;;;6.57;2.85;;;;;;;16.81;100.00;100356.75;5288613;28;20023;-67
2021/08/07 00:23:40;;;;;;;5.38;2.97;;;;;;;16.75;100.00;100343.28;5286185;28;20028;-67
2021/08/07 00:26:11;;;;;;;6.28;3.75;;;;;;;16.72;100.00;100348.06;5287040;28;20059;-67
2021/08/07 00:28:42;;;;;;;7.43;3.42;;;;;;;16.70;100.00;100348.22;5286594;28;20024;-67
2021/08/07 00:31:14;;;;;;;8.70;3.92;;;;;;;16.68;100.00;100344.97;5286943;28;20033;-67
2021/08/07 00:33:45;;;;;;;12.23;3.92;;;;;;;16.64;100.00;100340.22;5284215;28;20078;-67
2021/08/07 00:36:16;;;;;;;9.93;4.40;;;;;;;16.62;100.00;100343.03;5286637;28;20485;-67
2021/08/07 00:38:48;;;;;;;9.38;3.85;;;;;;;16.63;100.00;100350.00;5285008;28;20040;-67
2021/08/07 00:41:19;;;;;;;9.48;4.32;;;;;;;16.59;100.00;100340.75;5286630;28;20112;-67
2021/08/07 00:43:50;;;;;;;13.20;5.20;;;;;;;16.56;100.00;100333.19;5285801;28;20074;-67
2021/08/07 00:46:21;;;;;;;14.10;4.50;;;;;;;16.55;100.00;100331.53;5281690;28;20044;-67
2021/08/07 00:48:53;;;;;;;13.57;5.28;;;;;;;16.53;100.00;100320.34;5286420;28;20016;-67
2021/08/07 00:51:24;;;;;;;13.07;5.28;;;;;;;16.51;100.00;100317.03;5286396;28;20503;-67
2021/08/07 00:53:56;;;;;;;9.48;4.80;;;;;;;16.47;100.00;100316.56;5282609;28;20027;-67
2021/08/07 00:56:27;;;;;;;11.67;4.87;;;;;;;16.47;100.00;100323.69;5285654;28;20103;-67
2021/08/07 00:58:59;;;;;;;11.43;5.07;;;;;;;16.46;100.00;100324.69;5287364;28;20267;-67
2021/08/07 01:01:42;;;;;;;11.75;5.22;;;;;;;16.48;100.00;100328.00;5286535;28;20052;-67
2021/08/07 01:04:19;;;;;;;12.98;5.40;;;;;;;16.44;100.00;100316.97;5283096;28;20028;-67
2021/08/07 01:06:59;;;;;;;8.70;4.20;;;;;;;16.45;100.00;100323.88;5284846;28;20043;-67
2021/08/07 01:09:42;;;;;;;13.25;4.63;;;;;;;16.43;100.00;100325.06;5286163;28;20032;-67
2021/08/07 01:12:26;;;;;;;7.85;3.90;;;;;;;16.46;100.00;100328.16;5284957;28;20658;-67
2021/08/07 01:15:01;;;;;;;10.15;3.90;;;;;;;16.37;100.00;100313.41;5285482;28;20028;-67
2021/08/07 01:17:33;;;;;;;11.55;4.70;;;;;;;16.33;100.00;100320.06;5289251;28;20025;-67
2021/08/07 01:20:13;;;;;;;9.85;4.32;;;;;;;16.36;100.00;100330.25;5285174;28;20028;-67
2021/08/07 01:22:45;;;;;;;9.75;4.32;;;;;;;16.33;100.00;100329.78;5281794;28;20038;-67
2021/08/07 01:25:18;;;;;;;10.33;4.60;;;;;;;16.25;100.00;100334.16;5286363;28;20328;-67
2021/08/07 01:27:50;;;;;;;9.10;4.60;;;;;;;16.19;100.00;100336.69;5286754;28;20050;-67
2021/08/07 01:30:22;;;;;;;8.77;4.05;;;;;;;16.18;100.00;100327.94;5286777;28;20033;-67
2021/08/07 01:32:55;;;;;;;11.35;4.57;;;;;;;16.14;100.00;100325.81;5285263;28;20027;-67
2021/08/07 01:35:26;;;;;;;;;;;;;;;16.46;100.00;100330.00;5283365;28;20031;-67
2021/08/07 01:37:58;;;;;;;10.10;3.50;;;;;;;16.07;100.00;100325.75;5287987;28;19917;-67
2021/08/07 01:40:29;;;;;;;8.85;4.30;;;;;;;16.09;100.00;100328.19;5268371;28;20233;-67
2021/08/07 01:43:00;;;;;;;8.00;3.63;;;;;;;16.01;100.00;100327.25;5266892;28;20126;-67
2021/08/07 01:45:32;;;;;;;7.43;4.00;;;;;;;16.00;100.00;100325.63;5285640;28;20024;-67
2021/08/07 01:48:08;;;;;;;5.45;3.38;;;;;;;15.99;100.00;100328.47;5285275;28;20130;-67
2021/08/07 01:50:51;;;;;;;6.15;3.38;;;;;;;16.01;100.00;100329.91;5282431;28;20036;-67
2021/08/07 01:53:25;;;;;;;6.60;3.30;;;;;;;15.93;100.00;100329.16;5281637;28;20032;-67
2021/08/07 01:56:15;;;;;;;7.88;3.28;;;;;;;16.04;100.00;100326.09;5284561;28;20034;-67
2021/08/07 01:58:56;;;;;;;4.45;2.97;;;;;;;15.91;100.00;100325.84;5287092;28;20511;-67
2021/08/07 02:01:29;;;;;;;7.03;3.20;;;;;;;15.86;100.00;100317.66;5280239;28;20023;-67
2021/08/07 02:04:02;;;;;;;5.85;3.38;;;;;;;15.84;100.00;100317.03;5285703;28;20032;-66
2021/08/07 02:06:35;;;;;;;6.72;2.85;;;;;;;15.77;100.00;100316.91;5285099;28;20034;-66
2021/08/07 02:09:07;;;;;;;5.50;2.72;;;;;;;15.77;100.00;100315.06;5282891;28;20480;-66
2021/08/07 02:11:42;;;;;;;6.78;2.97;;;;;;;15.72;100.00;100312.16;5284749;28;20085;-66
2021/08/07 02:14:18;;;;;;;5.55;2.75;;;;;;;15.79;100.00;100313.06;5285138;28;20054;-66
2021/08/07 02:16:49;;;;;;;5.63;2.55;;;;;;;15.72;100.00;100306.88;5286003;28;20019;-66
2021/08/07 02:19:22;;;;;;;5.65;2.88;;;;;;;15.72;100.00;100317.44;5282465;28;20412;-66
2021/08/07 02:21:54;;;;;;;6.82;3.20;;;;;;;15.70;100.00;100306.22;5284760;28;20688;-66
2021/08/07 02:24:26;;;;;;;7.80;3.28;;;;;;;15.73;100.00;100310.34;5284869;28;20028;-66
2021/08/07 02:26:59;;;;;;;8.55;3.25;;;;;;;15.71;100.00;100310.50;5283169;28;20029;-67
2021/08/07 02:29:31;;;;;;;6.47;3.00;;;;;;;15.74;100.00;100309.31;5284042;28;20028;-66
2021/08/07 02:32:04;;;;;;;5.45;2.83;;;;;;;15.73;100.00;100305.06;5284127;28;20054;-66
2021/08/07 02:34:36;;;;;;;8.57;3.27;;;;;;;15.71;100.00;100312.31;5284099;28;20032;-66
2021/08/07 02:37:08;;;;;;;6.55;2.95;;;;;;;15.74;100.00;100320.72;5283308;28;20455;-66
2021/08/07 02:39:41;;;;;;;5.53;2.70;;;;;;;15.71;100.00;100314.94;5283473;28;20035;-66
2021/08/07 02:42:12;;;;;;;5.97;2.88;;;;;;;15.69;100.00;100322.25;5283071;28;20055;-66
2021/08/07 02:44:44;;;;;;;7.72;3.40;;;;;;;15.71;100.00;100321.06;5281706;28;20028;-67
2021/08/07 02:47:15;;;;;;;5.93;2.92;;;;;;;15.69;100.00;100320.41;5285019;28;20050;-67
2021/08/07 02:49:47;;;;;;;6.70;3.53;;;;;;;15.69;100.00;100312.50;5285955;28;20037;-67
2021/08/07 02:52:19;;;;;;;6.75;3.10;;;;;;;15.63;100.00;100301.78;5279329;28;20029;-67
2021/08/07 02:54:52;;;;;;;5.88;3.15;;;;;;;15.69;100.00;100309.84;5279493;28;20064;-67
2021/08/07 02:57:23;;;;;;;5.10;3.45;;;;;;;15.71;100.00;100310.50;5284682;28;20020;-67
2021/08/07 02:59:55;;;;;;;5.78;3.17;;;;;;;15.72;100.00;100309.50;5283125;28;20039;-67
2021/08/07 03:02:27;;;;;;;8.43;3.58;;;;;;;15.70;100.00;100303.56;5282699;28;20062;-67
2021/08/07 03:04:58;;;;;;;8.13;3.33;;;;;;;15.73;100.00;100311.16;5281278;28;20107;-67
2021/08/07 03:07:29;;;;;;;7.25;3.22;;;;;;;15.73;100.00;100305.06;5285207;28;20425;-67
2021/08/07 03:10:01;;;;;;;7.07;3.40;;;;;;;15.74;100.00;100299.56;5281017;28;20074;-66
2021/08/07 03:12:32;;;;;;;6.72;3.80;;;;;;;15.72;100.00;100288.38;5286218;28;20024;-66
2021/08/07 03:15:06;;;;;;;10.55;3.80;;;;;;;15.69;100.00;100295.84;5282540;28;20036;-67
2021/08/07 03:17:38;;;;;;;6.80;3.38;;;;;;;15.66;100.00;100294.38;5283628;28;20027;-66
2021/08/07 03:20:10;;;;;;;8.85;4.03;;;;;;;15.67;100.00;100293.34;5284351;28;20025;-66
2021/08/07 03:22:42;;;;;;;6.72;3.42;;;;;;;15.64;100.00;100285.75;5265603;28;20036;-66
2021/08/07 03:25:13;;;;;;;11.32;3.35;;;;;;;15.63;100.00;100286.75;5283465;28;20357;-67
2021/08/07 03:27:45;;;;;;;6.10;3.15;;;;;;;15.59;100.00;100285.47;5282738;28;20332;-67
2021/08/07 03:30:16;;;;;;;7.87;3.17;;;;;;;15.59;100.00;100285.47;5285528;28;20082;-66
2021/08/07 03:32:47;;;;;;;8.27;3.45;;;;;;;15.55;100.00;100287.63;5283587;28;20308;-67
2021/08/07 03:35:19;;;;;;;9.13;3.13;;;;;;;15.57;100.00;100284.84;5283741;28;20062;-67
2021/08/07 03:37:50;;;;;;;8.45;3.15;;;;;;;15.55;100.00;100282.34;5285123;28;20047;-66
2021/08/07 03:40:22;;;;;;;9.20;3.60;;;;;;;15.52;100.00;100280.06;5281447;28;20142;-66
2021/08/07 03:42:53;;;;;;;7.53;3.50;;;;;;;15.53;100.00;100276.44;5284441;28;20454;-67
2021/08/07 03:45:24;;;;;;;7.53;3.30;;;;;;;15.49;100.00;100276.94;5284144;28;20541;-66
2021/08/07 03:47:56;;;;;;;7.57;3.42;;;;;;;15.46;100.00;100279.97;5282550;28;20028;-66
2021/08/07 03:50:27;;;;;;;8.13;3.53;;;;;;;15.44;100.00;100266.09;5281666;28;20493;-67
2021/08/07 03:52:59;;;;;;;6.85;2.85;;;;;;;15.40;100.00;100267.47;5282570;28;20032;-67
2021/08/07 03:55:30;;;;;;;8.82;3.35;;;;;;;15.38;100.00;100267.66;5283192;28;20402;-67
2021/08/07 03:58:01;;;;;;;7.43;3.17;;;;;;;15.38;100.00;100264.16;5282638;28;20093;-67
2021/08/07 04:00:34;;;;;;;6.93;2.95;;;;;;;15.35;100.00;100272.47;5280425;28;20134;-67
2021/08/07 04:03:06;;;;;;;;;;;;;;;15.61;100.00;100267.66;5281227;28;20028;-66
2021/08/07 04:05:37;;;;;;;6.80;2.80;;;;;;;15.30;100.00;100270.31;5283714;28;19927;-66
2021/08/07 04:08:09;;;;;;;8.95;3.17;;;;;;;15.27;100.00;100276.78;5282421;28;20287;-66
2021/08/07 04:10:40;;;;;;;6.70;2.75;;;;;;;15.24;100.00;100271.84;5287590;28;20560;-67
2021/08/07 04:13:11;;;;;;;8.75;3.10;;;;;;;15.23;100.00;100264.94;5286587;28;20400;-66
2021/08/07 04:15:43;;;;;;;11.45;3.22;;;;;;;15.22;100.00;100276.47;5286798;28;20052;-66
2021/08/07 04:18:14;;;;;;;7.28;3.40;;;;;;;15.22;100.00;100265.91;5288011;28;20554;-67
2021/08/07 04:20:45;;;;;;;6.18;3.13;;;;;;;15.22;100.00;100268.56;5287578;28;20062;-66
2021/08/07 04:23:16;;;;;;;5.72;2.67;;;;;;;15.27;100.00;100271.50;5287238;28;20038;-67
2021/08/07 04:25:48;;;;;;;6.68;2.97;;;;;;;15.29;100.00;100276.59;5287985;28;20060;-67
2021/08/07 04:28:19;;;;;;;7.40;3.17;;;;;;;15.28;100.00;100273.13;5286919;28;20024;-67
2021/08/07 04:30:50;;;;;;;5.82;2.47;;;;;;;15.31;100.00;100272.78;5284683;28;20027;-67
2021/08/07 04:33:21;;;;;;;4.32;2.53;;;;;;;15.31;100.00;100267.53;5286552;28;20482;-67
2021/08/07 04:35:53;;;;;;;7.10;2.97;;;;;;;15.36;100.00;100266.16;5282515;28;20024;-67
2021/08/07 04:38:24;;;;;;;7.13;3.13;;;;;;;15.37;100.00;100265.97;5285236;28;20156;-67
2021/08/07 04:40:56;;;;;;;6.68;3.03;;;;;;;15.39;100.00;100269.28;5284617;28;20036;-66
2021/08/07 04:43:28;;;;;;;5.97;3.22;;;;;;;15.41;100.00;100269.09;5289752;28;20107;-66
2021/08/07 04:46:00;;;;;;;4.97;2.88;;;;;;;15.40;100.00;100267.47;5285885;28;20123;-67
2021/08/07 04:48:31;;;;;;;4.15;3.00;;;;;;;15.41;100.00;100263.81;5285488;28;20020;-67
2021/08/07 04:51:03;;;;;;;4.43;3.00;;;;;;;15.44;100.00;100266.09;5287086;28;20054;-67
2021/08/07 04:53:34;;;;;;;4.63;3.00;;;;;;;15.43;100.00;100265.28;5286887;28;20078;-67
2021/08/07 04:56:06;;;;;;;7.57;3.50;;;;;;;15.46;100.00;100257.03;5286594;28;20059;-67
2021/08/07 04:58:37;;;;;;;7.80;3.63;;;;;;;15.51;100.00;100261.78;5269047;28;20020;-67
2021/08/07 05:01:09;;;;;;;6.57;3.80;;;;;;;15.50;100.00;100255.69;5286885;28;20032;-66
2021/08/07 05:03:40;;;;;;;5.97;3.22;;;;;;;15.57;100.00;100261.06;5285243;28;20028;-67
2021/08/07 05:06:11;;;;;;;5.35;3.05;;;;;;;15.50;100.00;100249.56;5268653;28;20047;-67
2021/08/07 05:08:42;;;;;;;3.83;2.72;;;;;;;15.58;100.00;100249.50;5286413;28;20202;-67
2021/08/07 05:11:14;;;;;;;6.38;3.10;;;;;;;15.61;100.00;100250.97;5285709;28;20016;-67
2021/08/07 05:13:45;;;;;;;6.78;3.42;;;;;;;15.63;100.00;100244.50;5289508;28;20058;-67
2021/08/07 05:16:16;;;;;;;6.97;3.60;;;;;;;15.60;100.00;100239.56;5285017;28;20047;-67
2021/08/07 05:18:48;;;;;;;6.93;3.67;;;;;;;15.61;100.00;100238.59;5287303;28;20031;-67
2021/08/07 05:21:19;;;;;;;5.43;3.30;;;;;;;15.64;100.00;100245.31;5285205;28;20021;-67
2021/08/07 05:23:50;;;;;;;6.20;3.33;;;;;;;15.66;100.00;100238.91;5283138;28;20032;-67
2021/08/07 05:26:21;;;;;;;11.57;3.67;;;;;;;15.64;100.00;100234.75;5287607;28;20031;-67
2021/08/07 05:28:53;;;;;;;6.07;2.85;;;;;;;15.65;100.00;100244.34;5285433;28;20032;-67
2021/08/07 05:31:24;;;;;;;5.75;3.13;;;;;;;15.64;100.00;100240.84;5282852;28;20115;-67
2021/08/07 05:33:55;;;;;;;5.35;3.17;;;;;;;15.64;100.00;100234.75;5287813;28;20126;-67
2021/08/07 05:36:27;;;;;;;5.45;3.00;;;;;;;15.64;100.00;100235.56;5286022;28;20024;-67
2021/08/07 05:38:58;;;;;;;6.43;3.38;;;;;;;15.70;100.00;100239.38;5286230;28;20139;-68
2021/08/07 05:41:29;;;;;;;9.00;3.42;;;;;;;15.70;100.00;100232.28;5285719;28;20047;-69
2021/08/07 05:44:00;;;;;;;5.57;3.13;;;;;;;15.73;100.00;100236.38;5287234;28;20030;-68
2021/08/07 05:46:32;;;;;;;6.72;3.42;;;;;;;15.77;100.00;100235.03;5285866;28;20036;-68
2021/08/07 05:49:03;;;;;;;8.18;2.90;;;;;;;15.81;100.00;100233.66;5285278;28;20050;-68
2021/08/07 05:51:35;;;;;;;5.13;3.03;;;;;;;15.89;100.00;100233.59;5282058;28;20051;-68
2021/08/07 05:54:06;;;;;;;4.78;2.55;;;;;;;15.91;100.00;100228.97;5283314;28;20028;-68
2021/08/07 05:56:38;;;;;;;5.55;3.15;;;;;;;15.93;100.00;100221.66;5283754;28;20020;-68
2021/08/07 05:59:09;;;;;;;10.13;3.22;;;;;;;16.02;100.00;100217.94;5283097;28;20478;-68
2021/08/07 06:01:40;;;;;;;8.05;3.08;;;;;;;16.07;100.00;100216.59;5279916;28;20066;-68
2021/08/07 06:04:11;;;;;;;6.47;3.08;;;;;;;16.13;100.00;100218.47;5277973;28;20081;-68
2021/08/07 06:06:43;;;;;;;6.43;2.70;;;;;;;16.23;100.00;100219.03;5284909;28;20016;-68
2021/08/07 06:09:14;;;;;;;6.38;2.72;;;;;;;16.33;100.00;100222.25;5283637;28;20039;-71
2021/08/07 06:11:45;;;;;;;7.15;2.95;;;;;;;16.46;100.00;100218.94;5284455;28;20074;-68
2021/08/07 06:14:17;;;;;;;4.88;2.55;;;;;;;16.61;100.00;100217.09;5283758;28;20111;-68
2021/08/07 06:16:48;;;;;;;5.82;2.42;;;;;;;16.69;100.00;100210.88;5285209;28;20024;-68
2021/08/07 06:19:19;;;;;;;5.50;2.65;;;;;;;16.75;100.00;100221.59;5283441;28;20024;-68
2021/08/07 06:21:51;;;;;;;3.67;2.22;;;;;;;16.85;100.00;100223.91;5284751;28;20043;-69
2021/08/07 06:24:22;;;;;;;7.03;2.80;;;;;;;16.87;100.00;100221.91;5285166;28;20034;-68
2021/08/07 06:26:53;;;;;;;8.75;2.50;;;;;;;16.96;100.00;100215.50;5284837;28;20020;-69
2021/08/07 06:29:24;;;;;;;3.83;2.20;;;;;;;16.97;100.00;100219.81;5286450;28;20107;-68
2021/08/07 06:31:56;;;;;;;9.70;2.53;;;;;;;17.01;100.00;100210.47;5283297;28;20024;-68
2021/08/07 06:34:27;;;;;;;6.55;2.80;;;;;;;17.02;100.00;100209.47;5284577;28;20032;-68
2021/08/07 06:36:58;;;;;;;4.05;2.22;;;;;;;17.05;100.00;100213.56;5282240;28;20055;-68
2021/08/07 06:39:30;;;;;;;7.47;2.83;;;;;;;17.08;100.00;100210.53;5286163;28;20044;-68
2021/08/07 06:42:01;;;;;;;3.60;2.00;;;;;;;17.08;100.00;100213.19;5284477;28;20024;-68
2021/08/07 06:44:32;;;;;;;5.18;2.30;;;;;;;17.03;100.00;100205.00;5282382;28;20037;-69
2021/08/07 06:47:04;;;;;;;4.88;2.05;;;;;;;17.07;100.00;100203.59;5284923;28;20127;-68
2021/08/07 06:49:35;;;;;;;4.82;2.22;;;;;;;17.10;100.00;100203.22;5280609;28;20046;-68
2021/08/07 06:52:07;;;;;;;4.50;2.10;;;;;;;17.10;100.00;100202.41;5282730;28;20656;-68
2021/08/07 06:54:38;;;;;;;6.88;2.20;;;;;;;17.21;100.00;100200.09;5283259;28;20181;-68
2021/08/07 06:57:16;;;;;;;6.60;2.35;;;;;;;17.26;100.00;100199.50;5273158;28;20505;-68
2021/08/07 06:59:47;;;;;;;4.13;1.88;;;;;;;17.28;100.00;100202.81;5280751;28;20032;-68
2021/08/07 07:02:19;;;;;;;5.38;2.20;;;;;;;17.37;100.00;100187.59;5273394;28;20024;-67
2021/08/07 07:04:51;;;;;;;4.07;2.00;;;;;;;17.41;100.00;100192.31;5282452;28;20035;-68
2021/08/07 07:07:22;;;;;;;5.63;1.98;;;;;;;17.44;100.00;100197.25;5284227;28;20029;-68
2021/08/07 07:09:53;;;;;;;4.65;1.60;;;;;;;17.51;100.00;100192.00;5283428;28;20054;-68
2021/08/07 07:12:24;;;;;;;3.42;1.60;;;;;;;17.54;100.00;100186.34;5280722;28;20032;-68
2021/08/07 07:14:56;;;;;;;3.20;1.73;;;;;;;17.61;100.00;100192.47;5282848;28;20111;-68
2021/08/07 07:17:29;;;;;;;6.15;1.77;;;;;;;17.73;100.00;100193.59;5282396;28;20031;-68
2021/08/07 07:20:00;;;;;;;4.20;2.00;;;;;;;17.80;100.00;100198.97;5280817;28;20055;-69
2021/08/07 07:22:32;;;;;;;4.30;1.77;;;;;;;17.81;100.00;100197.16;5281648;28;20135;-68
2021/08/07 07:25:06;;;;;;;4.40;1.50;;;;;;;17.93;100.00;100199.06;5283154;28;20038;-68
2021/08/07 07:27:37;;;;;;;5.03;1.70;;;;;;;18.04;100.00;100200.38;5285116;28;20649;-68
2021/08/07 07:30:10;;;;;;;4.72;1.67;;;;;;;18.12;100.00;100202.03;5284405;28;20129;-69
2021/08/07 07:32:42;;;;;;;4.22;2.13;;;;;;;18.17;100.00;100203.09;5282216;28;20497;-69
2021/08/07 07:35:13;;;;;;;3.90;1.63;;;;;;;18.14;100.00;100197.34;5283125;28;20047;-69
2021/08/07 07:37:45;;;;;;;3.53;1.97;;;;;;;18.22;100.00;100194.53;5282029;28;20032;-69
2021/08/07 07:40:16;;;;;;;3.83;1.73;;;;;;;18.20;100.00;100189.44;5283529;28;20472;-69
2021/08/07 07:42:47;;;;;;;5.90;2.05;;;;;;;18.35;100.00;100188.50;5275134;28;20032;-70
2021/08/07 07:45:19;;;;;;;3.03;1.58;;;;;;;18.45;100.00;100188.97;5286220;28;20027;-68
2021/08/07 07:47:50;;;;;;;3.93;1.53;;;;;;;18.57;100.00;100191.88;5285249;28;20029;-68
2021/08/07 07:50:21;;;;;;;5.97;1.90;;;;;;;18.63;100.00;100189.22;5286792;28;20056;-68
2021/08/07 07:52:52;;;;;;;4.53;1.40;;;;;;;18.69;100.00;100184.97;5286515;28;20049;-68
2021/08/07 07:55:24;;;;;;;5.30;1.83;;;;;;;18.79;100.00;100190.75;5288701;28;20036;-68
2021/08/07 07:57:59;;;;;;;5.30;1.70;;;;;;;18.91;100.00;100180.38;5287701;28;20401;-69
2021/08/07 08:00:30;;;;;;;5.85;1.50;;;;;;;18.91;99.24;100180.38;5283851;28;20028;-69
2021/08/07 08:03:02;;;;;;;6.05;1.73;;;;;;;19.01;99.55;100178.13;5283535;28;20248;-69
2021/08/07 08:05:34;;;;;;;4.27;1.70;;;;;;;19.11;100.00;100183.88;5285896;28;20417;-69
2021/08/07 08:08:05;;;;;;;5.13;1.50;;;;;;;19.06;99.98;100177.53;5287499;28;20036;-69
2021/08/07 08:10:38;;;;;;;4.63;1.50;;;;;;;19.02;100.00;100176.31;5287641;28;20775;-69
2021/08/07 08:13:09;;;;;;;5.75;1.70;;;;;;;19.07;100.00;100179.97;5281781;28;20109;-70
2021/08/07 08:15:41;;;;;;;3.50;1.43;;;;;;;19.21;100.00;100178.19;5287985;28;20423;-70
2021/08/07 08:18:12;;;;;;;3.90;1.33;;;;;;;19.24;100.00;100180.41;5288860;28;20077;-69
2021/08/07 08:20:43;;;;;;;4.10;1.53;;;;;;;19.35;99.93;100163.03;5288226;28;20065;-69
2021/08/07 08:23:15;;;;;;;4.50;1.30;;;;;;;19.48;100.00;100168.38;5266688;28;20040;-69
2021/08/07 08:25:46;;;;;;;4.63;2.03;;;;;;;19.53;99.66;100167.75;5282448;28;20028;-69
2021/08/07 08:28:18;;;;;;;7.27;1.67;;;;;;;19.77;99.72;100168.97;5287536;28;20485;-69
2021/08/07 08:30:50;;;;;;;4.37;1.70;;;;;;;19.92;99.17;100173.03;5283596;28;20045;-69
2021/08/07 08:33:21;;;;;;;7.73;1.90;;;;;;;20.05;97.48;100174.06;5285944;28;20441;-70
2021/08/07 08:35:52;;;;;;;6.20;2.00;;;;;;;20.26;97.39;100162.31;5281952;28;20024;-69
2021/08/07 08:38:23;;;;;;;4.87;1.43;;;;;;;20.35;96.07;100174.38;5284825;28;20263;-69
2021/08/07 08:40:59;;;;;;;6.30;1.60;;;;;;;20.35;96.07;100158.41;5279423;28;20040;-69
2021/08/07 08:43:30;;;;;;;7.28;1.73;;;;;;;20.39;96.00;100154.31;5281867;28;20028;-69
2021/08/07 08:46:02;;;;;;;4.30;1.53;;;;;;;20.54;95.11;100160.19;5282011;28;20035;-69
2021/08/07 08:48:35;;;;;;;4.80;1.53;;;;;;;20.58;93.24;100164.06;5285081;28;20112;-69
2021/08/07 08:51:08;;;;;;;5.45;1.52;;;;;;;20.56;93.16;100160.78;5283338;28;20024;-69
2021/08/07 08:53:41;;;;;;;3.67;1.23;;;;;;;20.73;93.06;100158.47;5285515;28;20535;-69
2021/08/07 08:56:12;;;;;;;4.70;1.35;;;;;;;20.66;91.95;100152.34;5268598;28;20024;-70
2021/08/07 08:58:44;;;;;;;2.97;1.37;;;;;;;20.60;92.58;100156.66;5278228;28;20570;-70
2021/08/07 09:01:16;;;;;;;7.40;1.70;;;;;;;20.65;94.06;100158.72;5285074;28;20398;-69
2021/08/07 09:03:48;;;;;;;5.97;1.60;;;;;;;20.68;93.68;100152.13;5279661;28;20036;-70
2021/08/07 09:06:20;;;;;;;7.53;2.00;;;;;;;20.49;94.20;100143.19;5282864;28;20024;-69
2021/08/07 09:09:10;;;;;;;5.77;1.40;;;;;;;20.43;95.21;100144.88;5285391;28;20031;-70
2021/08/07 09:11:53;;;;;;;5.78;1.88;;;;;;;20.23;95.30;100149.44;5284639;28;20043;-69
2021/08/07 09:14:33;;;;;;;7.88;2.00;;;;;;;20.13;94.30;100142.72;5284628;28;20107;-70
2021/08/07 09:17:11;;;;;;;7.93;2.10;;;;;;;20.28;93.83;100141.66;5286868;28;20032;-69
2021/08/07 09:19:42;;;;;;;7.85;2.13;;;;;;;20.23;94.00;100138.78;5285729;28;20751;-70
2021/08/07 09:22:14;;;;;;;6.93;1.70;;;;;;;20.20;91.56;100136.56;5266790;28;20158;-70
2021/08/07 09:25:10;;;;;;;5.18;1.70;;;;;;;20.23;93.08;100136.97;5284582;28;20036;-69
2021/08/07 09:27:42;;;;;;;4.90;1.70;;;;;;;20.41;94.00;100130.94;5282948;28;20487;-70
2021/08/07 09:30:16;;;;;;;4.38;1.60;;;;;;;20.77;91.92;100132.22;5284174;28;20032;-70
2021/08/07 09:32:55;;;;;;;4.30;1.65;;;;;;;21.15;91.50;100126.84;5284660;28;20039;-70
2021/08/07 09:35:32;;;;;;;5.70;1.75;;;;;;;21.32;89.09;100121.78;5289631;28;20040;-70
2021/08/07 09:38:23;;;;;;;6.95;1.80;;;;;;;21.46;87.06;100117.19;5283430;28;20021;-70
2021/08/07 09:40:59;;;;;;;4.38;1.40;;;;;;;21.32;84.90;100127.91;5279720;28;20119;-70
2021/08/07 09:43:37;;;;;;;4.05;1.38;;;;;;;21.43;82.81;100125.59;5274785;28;20482;-68
2021/08/07 09:46:09;;;;;;;7.90;2.25;;;;;;;21.49;83.82;100114.91;5275874;28;20036;-68
2021/08/07 09:48:42;;;;;;;9.45;2.05;;;;;;;21.81;84.27;100112.91;5280665;28;20036;-68
2021/08/07 09:51:23;;;;;;;5.20;1.58;;;;;;;21.90;83.26;100118.78;5280811;28;20021;-68
2021/08/07 09:54:08;;;;;;;3.95;1.33;;;;;;;21.97;83.35;100116.88;5284994;28;20051;-68
2021/08/07 09:56:57;;;;;;;4.28;1.35;;;;;;;21.96;83.67;100117.88;5284640;28;20028;-69
2021/08/07 09:59:35;;;;;;;6.05;1.60;;;;;;;21.89;81.60;100111.81;5283208;28;20034;-69
2021/08/07 10:02:26;;;;;;;4.50;1.83;;;;;;;22.17;81.10;100118.53;5284964;28;20032;-68
2021/08/07 10:04:58;;;;;;;4.45;1.40;;;;;;;21.88;80.71;100122.72;5282886;28;20596;-69
2021/08/07 10:07:30;;;;;;;5.10;1.42;;;;;;;22.11;81.34;100117.50;5284483;28;20099;-68
2021/08/07 10:10:01;;;;;;;5.03;1.47;;;;;;;22.21;78.16;100119.69;5285627;28;20034;-69
2021/08/07 10:12:44;;;;;;;5.03;1.57;;;;;;;22.47;79.30;100119.38;5283034;28;20035;-69
2021/08/07 10:15:15;;;;;;;5.65;1.42;;;;;;;22.42;77.48;100116.53;5283840;28;20388;-69
2021/08/07 10:17:48;;;;;;;5.87;1.10;;;;;;;22.23;75.27;100118.41;5283928;28;20115;-69
2021/08/07 10:20:20;;;;;;;;;;;;;;;22.45;76.93;100105.41;5286732;28;20107;-69
2021/08/07 10:22:53;;;;;;;4.05;1.30;;;;;;;22.17;77.35;100111.31;5281279;28;19919;-69
2021/08/07 10:25:25;;;;;;;3.75;1.35;;;;;;;21.94;77.81;100113.84;5283869;28;20044;-69
2021/08/07 10:27:59;;;;;;;5.72;1.33;;;;;;;21.60;78.06;100108.84;5284866;28;20031;-69
2021/08/07 10:30:32;;;;;;;4.30;1.50;;;;;;;21.34;79.19;100112.56;5284506;28;20103;-69
2021/08/07 10:33:05;;;;;;;6.85;1.58;;;;;;;21.35;80.49;100114.19;5282026;28;20094;-69
2021/08/07 10:35:37;;;;;;;6.53;1.92;;;;;;;21.33;80.87;100104.81;5284166;28;20135;-69
2021/08/07 10:38:08;;;;;;;4.20;1.30;;;;;;;21.62;80.49;100104.09;5286692;28;20439;-69
2021/08/07 10:40:40;;;;;;;6.50;1.63;;;;;;;21.88;80.62;100104.84;5283472;28;20072;-69
2021/08/07 10:43:13;;;;;;;3.83;1.30;;;;;;;22.23;79.09;100097.06;5283691;28;20035;-69
2021/08/07 10:45:44;;;;;;;5.30;1.58;;;;;;;22.52;79.85;100091.97;5282281;28;20107;-69
2021/08/07 10:48:44;;;;;;;5.90;1.70;;;;;;;22.81;78.42;100091.16;5285382;28;20426;-69
2021/08/07 10:51:18;;;;;;;4.97;1.20;;;;;;;22.82;75.70;100089.28;5274995;28;20081;-69
2021/08/07 10:53:52;;;;;;;4.78;1.48;;;;;;;22.97;74.04;100091.56;5279948;28;20040;-70
2021/08/07 10:56:29;;;;;;;4.47;1.30;;;;;;;23.18;74.55;100082.16;5282758;28;20016;-69
2021/08/07 10:59:09;;;;;;;4.93;1.40;;;;;;;23.27;74.23;100078.09;5273083;28;20070;-69
2021/08/07 11:01:46;;;;;;;4.97;1.33;;;;;;;23.23;72.91;100071.59;5278904;28;20024;-70
2021/08/07 11:04:23;;;;;;;5.50;1.60;;;;;;;23.19;72.74;100065.09;5284399;28;20032;-70
2021/08/07 11:07:08;;;;;;;5.05;1.40;;;;;;;23.33;73.05;100052.28;5282925;28;20032;-70
2021/08/07 11:09:41;;;;;;;4.05;1.20;;;;;;;23.33;72.98;100049.63;5280399;28;20381;-70
2021/08/07 11:12:12;;;;;;;;;;;;;;;23.71;73.53;100049.94;5282696;28;20039;-71
2021/08/07 11:14:49;;;;;;;5.20;1.45;;;;;;;23.64;70.61;100053.75;5272805;28;19916;-70
2021/08/07 11:17:20;;;;;;;8.90;1.50;;;;;;;23.53;71.17;100048.22;5287546;28;20032;-70
2021/08/07 11:19:55;;;;;;;4.53;1.27;;;;;;;23.39;70.92;100051.38;5278406;28;20628;-71
2021/08/07 11:22:36;;;;;;;5.10;1.33;;;;;;;23.30;71.84;100054.41;5290556;28;20028;-70
2021/08/07 11:25:21;;;;;;;4.35;1.35;;;;;;;23.50;71.83;100043.34;5276449;28;20062;-70
2021/08/07 11:27:55;;;;;;;3.97;1.17;;;;;;;23.17;70.05;100041.25;5271145;28;20028;-70
2021/08/07 11:30:30;;;;;;;6.15;1.40;;;;;;;23.42;71.83;100034.88;5277677;28;20060;-71
2021/08/07 11:33:01;;;;;;;4.05;1.10;;;;;;;23.29;71.16;100033.22;5280106;28;20016;-71
2021/08/07 11:35:41;;;;;;;2.70;1.10;;;;;;;23.17;69.11;100025.22;5281515;28;20028;-70
2021/08/07 11:38:14;;;;;;;4.15;1.40;;;;;;;23.51;68.51;100023.56;5282663;28;20086;-71
2021/08/07 11:40:50;;;;;;;5.18;1.65;;;;;;;23.84;68.85;100016.78;5281869;28;20027;-70
2021/08/07 11:43:23;;;;;;;5.22;1.55;;;;;;;23.80;67.27;100018.31;5279252;28;20028;-71
2021/08/07 11:45:54;;;;;;;3.05;1.20;;;;;;;23.69;66.60;100024.50;5283179;28;20032;-70